createdAt,value
2018-11-21T00:00:24.195Z,36.40
2018-11-21T00:03:13.175Z,36.60
2018-11-21T00:05:42.737Z,36.50
2018-11-21T00:08:31.584Z,36.70
2018-11-21T00:11:01.212Z,36.50
2018-11-21T00:13:50.113Z,36.60
2018-11-21T00:16:38.920Z,36.50
2018-11-21T00:19:27.456Z,36.60
2018-11-21T00:22:16.868Z,36.40
2018-11-21T00:25:05.664Z,36.20
2018-11-21T00:27:54.559Z,36.40
2018-11-21T00:30:43.490Z,36.60
2018-11-21T00:33:32.008Z,36.40
2018-11-21T00:36:20.684Z,36.30
2018-11-21T00:39:10.509Z,36.00
2018-11-21T00:41:59.052Z,36.70
2018-11-21T00:44:47.608Z,36.30
2018-11-21T00:47:36.150Z,36.60
2018-11-21T00:50:25.037Z,36.70
2018-11-21T00:53:13.536Z,36.60
2018-11-21T00:56:02.232Z,36.50
2018-11-21T00:58:50.782Z,36.70
2018-11-21T01:04:33.619Z,36.60
2018-11-21T01:07:22.149Z,36.80
2018-11-21T01:10:10.676Z,36.90
2018-11-21T01:12:59.495Z,37.00
2018-11-21T01:15:48.035Z,37.10
2018-11-21T01:18:36.578Z,37.10
2018-11-21T01:21:25.145Z,36.80
2018-11-21T01:24:13.665Z,37.00
2018-11-21T01:27:02.320Z,36.90
2018-11-21T01:29:50.949Z,37.00
2018-11-21T01:32:39.611Z,37.10
2018-11-21T01:35:28.164Z,37.20
2018-11-21T01:38:16.668Z,37.10
2018-11-21T01:44:00.053Z,37.10
2018-11-21T01:46:48.570Z,36.70
2018-11-21T01:49:37.115Z,37.10
2018-11-21T01:55:19.782Z,37.10
2018-11-21T01:58:08.344Z,37.10
2018-11-21T02:00:56.886Z,37.00
2018-11-21T02:03:45.392Z,37.20
2018-11-21T02:09:27.952Z,37.30
2018-11-21T02:12:16.515Z,37.30
2018-11-21T02:15:05.181Z,37.40
2018-11-21T02:17:53.742Z,37.40
2018-11-21T02:20:42.256Z,37.40
2018-11-21T02:23:30.925Z,37.40
2018-11-21T02:26:00.573Z,37.30
2018-11-21T02:28:49.143Z,37.20
2018-11-21T02:31:37.684Z,37.10
2018-11-21T02:34:26.232Z,37.10
2018-11-21T02:37:14.745Z,37.20
2018-11-21T02:42:52.001Z,37.30
2018-11-21T02:45:40.541Z,37.50
2018-11-21T02:48:29.946Z,37.50
2018-11-21T02:51:18.449Z,37.50
2018-11-21T02:54:07.061Z,37.40
2018-11-21T02:57:14.573Z,37.60
2018-11-21T03:00:22.426Z,37.40
2018-11-21T03:03:10.928Z,37.40
2018-11-21T03:05:59.470Z,37.50
2018-11-21T03:08:47.980Z,37.60
2018-11-21T03:11:36.522Z,37.60
2018-11-21T03:14:25.030Z,37.60
2018-11-21T03:17:13.601Z,37.20
2018-11-21T03:20:02.190Z,37.40
2018-11-21T03:22:50.744Z,37.40
2018-11-21T03:25:39.332Z,37.00
2018-11-21T03:28:27.943Z,37.10
2018-11-21T03:31:16.437Z,36.80
2018-11-21T03:34:05.157Z,37.40
2018-11-21T03:36:55.004Z,37.20
2018-11-21T03:39:43.535Z,37.40
2018-11-21T03:42:32.094Z,37.40
2018-11-21T03:45:39.356Z,37.40
2018-11-21T03:48:27.936Z,37.40
2018-11-21T03:51:16.423Z,37.30
2018-11-21T03:54:05.015Z,37.60
2018-11-21T03:56:53.544Z,37.20
2018-11-21T03:59:42.058Z,37.60
2018-11-21T04:02:30.581Z,37.70
2018-11-21T04:05:19.113Z,37.70
2018-11-21T04:08:07.708Z,37.90
2018-11-21T04:10:56.222Z,37.70
2018-11-21T04:13:44.757Z,38.10
2018-11-21T04:16:33.508Z,38.00
2018-11-21T04:19:22.027Z,37.90
2018-11-21T04:22:10.535Z,38.00
2018-11-21T04:24:59.092Z,38.00
2018-11-21T04:27:47.630Z,37.80
2018-11-21T04:30:36.199Z,37.70
2018-11-21T04:33:24.781Z,38.00
2018-11-21T04:36:13.983Z,38.10
2018-11-21T04:39:02.556Z,38.30
2018-11-21T04:44:59.877Z,38.30
2018-11-21T04:47:48.384Z,38.20
2018-11-21T04:50:36.988Z,38.60
2018-11-21T04:53:25.526Z,36.80
2018-11-21T04:56:14.047Z,36.10
2018-11-21T04:59:02.610Z,36.70
2018-11-21T05:01:51.148Z,37.70
2018-11-21T05:04:39.651Z,38.20
2018-11-21T05:07:28.166Z,38.50
2018-11-21T05:10:16.720Z,39.80
2018-11-21T05:15:54.323Z,42.60
2018-11-21T05:18:42.862Z,43.30
2018-11-21T05:21:31.363Z,44.00
2018-11-21T05:24:19.883Z,44.30
2018-11-21T05:27:09.030Z,45.10
2018-11-21T05:29:57.625Z,45.80
2018-11-21T05:32:46.199Z,46.10
2018-11-21T05:35:34.753Z,46.20
2018-11-21T05:38:30.728Z,46.50
2018-11-21T05:41:19.664Z,46.70
2018-11-21T05:44:08.325Z,46.40
2018-11-21T05:46:56.908Z,46.60
2018-11-21T05:49:45.438Z,46.60
2018-11-21T05:52:33.999Z,46.60
2018-11-21T05:55:22.496Z,46.60
2018-11-21T05:58:11.006Z,46.30
2018-11-21T06:00:59.571Z,46.30
2018-11-21T06:03:48.229Z,45.90
2018-11-21T06:06:36.941Z,46.00
2018-11-21T06:09:26.569Z,46.40
2018-11-21T06:12:14.043Z,46.20
2018-11-21T06:15:02.612Z,46.00
2018-11-21T06:17:51.149Z,46.00
2018-11-21T06:20:39.650Z,46.20
2018-11-21T06:23:28.217Z,46.60
2018-11-21T06:26:16.729Z,46.40
2018-11-21T06:29:06.069Z,46.30
2018-11-21T06:31:54.719Z,46.60
2018-11-21T06:34:43.227Z,46.00
2018-11-21T06:37:31.780Z,46.20
2018-11-21T06:40:20.287Z,46.10
2018-11-21T06:43:08.858Z,46.20
2018-11-21T06:45:57.407Z,46.40
2018-11-21T06:48:45.916Z,46.60
2018-11-21T06:51:35.317Z,47.10
2018-11-21T06:57:30.996Z,47.10
2018-11-21T07:00:19.486Z,46.70
2018-11-21T07:03:08.001Z,45.90
2018-11-21T07:05:56.521Z,46.10
2018-11-21T07:08:45.034Z,45.70
2018-11-21T07:11:33.569Z,46.40
2018-11-21T07:14:22.071Z,47.20
2018-11-21T07:17:10.728Z,46.10
2018-11-21T07:19:59.248Z,46.20
2018-11-21T07:22:47.754Z,46.00
2018-11-21T07:25:36.331Z,45.70
2018-11-21T07:28:24.938Z,44.10
2018-11-21T07:31:13.452Z,44.70
2018-11-21T07:34:01.997Z,43.50
2018-11-21T07:36:51.461Z,43.20
2018-11-21T07:39:39.964Z,42.80
2018-11-21T07:42:28.495Z,42.90
2018-11-21T07:45:17.152Z,42.40
2018-11-21T07:48:06.042Z,43.00
2018-11-21T07:50:55.378Z,41.80
2018-11-21T07:53:43.890Z,42.50
2018-11-21T07:56:51.462Z,42.90
2018-11-21T07:59:40.031Z,42.70
2018-11-21T08:02:33.665Z,43.10
2018-11-21T08:05:26.812Z,43.60
2018-11-21T08:08:34.095Z,43.10
2018-11-21T08:11:41.354Z,43.70
2018-11-21T08:14:48.668Z,43.60
2018-11-21T08:17:55.920Z,43.20
2018-11-21T08:21:03.179Z,43.70
2018-11-21T08:24:10.438Z,43.50
2018-11-21T08:27:17.689Z,42.60
2018-11-21T08:30:06.236Z,42.60
2018-11-21T08:32:54.769Z,42.60
2018-11-21T08:35:43.283Z,42.50
2018-11-21T08:38:32.011Z,41.80
2018-11-21T08:41:20.557Z,42.30
2018-11-21T08:44:09.142Z,42.70
2018-11-21T08:46:57.643Z,43.80
2018-11-21T08:49:46.202Z,43.50
2018-11-21T08:52:34.853Z,43.30
2018-11-21T08:55:23.414Z,42.70
2018-11-21T08:58:11.930Z,42.60
2018-11-21T09:01:00.470Z,41.80
2018-11-21T09:03:48.980Z,41.20
2018-11-21T09:06:38.036Z,42.70
2018-11-21T09:09:26.575Z,43.00
2018-11-21T09:12:15.485Z,41.30
2018-11-21T09:17:58.543Z,41.60
2018-11-21T09:20:47.079Z,40.90
2018-11-21T09:23:35.662Z,40.50
2018-11-21T09:26:24.198Z,41.60
2018-11-21T09:29:13.056Z,40.90
2018-11-21T09:32:01.608Z,40.80
2018-11-21T09:34:50.139Z,41.80
2018-11-21T09:37:38.831Z,41.50
2018-11-21T09:40:27.359Z,40.10
2018-11-21T09:43:15.863Z,39.60
2018-11-21T09:46:04.419Z,39.30
2018-11-21T09:48:52.932Z,38.60
2018-11-21T09:54:36.372Z,40.20
2018-11-21T09:57:24.876Z,39.40
2018-11-21T10:00:32.392Z,39.90
2018-11-21T10:09:00.483Z,40.40
2018-11-21T10:11:49.010Z,39.80
2018-11-21T10:14:37.552Z,39.70
2018-11-21T10:17:26.080Z,39.40
2018-11-21T10:20:14.617Z,39.00
2018-11-21T10:23:03.161Z,38.80
2018-11-21T10:28:47.145Z,38.60
2018-11-21T10:31:36.215Z,38.80
2018-11-21T10:34:24.709Z,38.90
2018-11-21T10:37:13.231Z,39.20
2018-11-21T10:43:09.533Z,40.30
2018-11-21T10:45:58.084Z,39.70
2018-11-21T10:48:46.584Z,39.80
2018-11-21T10:51:35.142Z,40.00
2018-11-21T10:54:23.641Z,39.30
2018-11-21T10:57:12.181Z,39.70
2018-11-21T11:00:00.703Z,39.70
2018-11-21T11:03:08.075Z,39.90
2018-11-21T11:06:15.346Z,40.10
2018-11-21T11:09:22.588Z,40.70
2018-11-21T11:12:29.849Z,40.70
2018-11-21T11:15:37.207Z,41.50
2018-11-21T11:18:44.456Z,41.60
2018-11-21T11:21:51.740Z,39.80
2018-11-21T11:24:59.206Z,39.80
2018-11-21T11:28:06.476Z,41.00
2018-11-21T11:31:13.701Z,39.30
2018-11-21T11:34:20.978Z,39.90
2018-11-21T11:37:28.258Z,39.70
2018-11-21T11:40:35.537Z,39.10
2018-11-21T11:43:42.788Z,38.70
2018-11-21T11:46:50.019Z,38.70
2018-11-21T11:49:57.322Z,38.40
2018-11-21T11:53:01.011Z,38.60
2018-11-21T11:56:08.239Z,38.80
2018-11-21T11:59:15.513Z,40.00
2018-11-21T12:02:22.782Z,40.00
2018-11-21T12:05:30.026Z,39.40
2018-11-21T12:12:04.941Z,38.90
2018-11-21T12:15:11.030Z,38.40
2018-11-21T12:18:18.317Z,38.40
2018-11-21T12:21:25.605Z,38.50
2018-11-21T12:24:32.865Z,38.50
2018-11-21T12:27:40.115Z,38.80
2018-11-21T12:30:47.429Z,39.90
2018-11-21T12:33:54.685Z,39.90
2018-11-21T12:37:01.929Z,39.80
2018-11-21T12:40:09.205Z,39.50
2018-11-21T12:45:52.523Z,38.50
2018-11-21T12:48:55.498Z,38.30
2018-11-21T12:54:59.866Z,35.80
2018-11-21T13:01:04.127Z,36.50
2018-11-21T13:04:04.927Z,36.30
2018-11-21T13:07:04.814Z,36.30
2018-11-21T13:10:05.785Z,36.00
2018-11-21T13:13:11.730Z,35.80
2018-11-21T13:16:11.750Z,36.60
2018-11-21T13:19:12.615Z,36.70
2018-11-21T13:22:12.644Z,36.70
2018-11-21T13:25:13.289Z,36.80
2018-11-21T13:28:15.834Z,37.00
2018-11-21T13:31:17.780Z,37.00
2018-11-21T13:34:17.666Z,37.90
2018-11-21T13:37:23.685Z,38.00
2018-11-21T13:40:13.565Z,38.60
2018-11-21T13:43:20.801Z,40.10
2018-11-21T13:46:28.115Z,40.50
2018-11-21T13:49:35.389Z,39.00
2018-11-21T13:52:42.767Z,38.90
2018-11-21T13:55:12.242Z,39.10
2018-11-21T13:58:00.875Z,38.60
2018-11-21T14:00:49.487Z,38.70
2018-11-21T14:03:38.003Z,39.20
2018-11-21T14:06:26.522Z,38.80
2018-11-21T14:09:19.780Z,38.40
2018-11-21T14:12:08.466Z,38.10
2018-11-21T14:14:57.058Z,38.40
2018-11-21T14:17:45.571Z,37.30
2018-11-21T14:20:34.238Z,37.60
2018-11-21T14:23:22.772Z,36.00
2018-11-21T14:29:05.575Z,35.90
2018-11-21T14:31:54.156Z,36.50
2018-11-21T14:34:42.668Z,36.40
2018-11-21T14:37:31.641Z,36.60
2018-11-21T14:40:20.586Z,36.90
2018-11-21T14:43:09.088Z,37.70
2018-11-21T14:45:57.652Z,37.60
2018-11-21T14:48:46.259Z,37.70
2018-11-21T14:51:34.816Z,37.80
2018-11-21T14:54:23.362Z,38.40
2018-11-21T14:57:11.944Z,38.90
2018-11-21T15:00:00.488Z,39.20
2018-11-21T15:02:49.067Z,39.30
2018-11-21T15:05:37.666Z,39.10
2018-11-21T15:11:33.993Z,39.50
2018-11-21T15:14:22.513Z,39.70
2018-11-21T15:17:11.168Z,39.80
2018-11-21T15:19:59.913Z,40.30
2018-11-21T15:25:24.413Z,40.30
2018-11-21T15:28:12.929Z,40.60
2018-11-21T15:31:01.837Z,40.80
2018-11-21T15:33:50.355Z,39.70
2018-11-21T15:36:38.891Z,39.80
2018-11-21T15:39:27.387Z,40.90
2018-11-21T15:42:15.926Z,39.50
2018-11-21T15:48:12.239Z,39.20
2018-11-21T15:51:00.951Z,39.50
2018-11-21T15:53:49.486Z,39.30
2018-11-21T15:56:38.340Z,39.30
2018-11-21T15:59:26.822Z,39.20
2018-11-21T16:02:15.346Z,39.10
2018-11-21T16:05:03.922Z,39.20
2018-11-21T16:07:52.434Z,39.30
2018-11-21T16:10:42.458Z,39.40
2018-11-21T16:13:31.062Z,39.60
2018-11-21T16:16:19.593Z,39.70
2018-11-21T16:19:08.170Z,39.70
2018-11-21T16:21:56.751Z,40.10
2018-11-21T16:24:45.265Z,40.00
2018-11-21T16:27:33.782Z,40.10
2018-11-21T16:30:23.867Z,40.10
2018-11-21T16:33:31.131Z,40.20
2018-11-21T16:36:26.933Z,40.90
2018-11-21T16:39:27.272Z,40.30
2018-11-21T16:42:15.809Z,40.60
2018-11-21T16:45:04.428Z,40.80
2018-11-21T16:47:52.943Z,40.80
2018-11-21T16:50:41.572Z,40.40
2018-11-21T16:53:35.044Z,40.10
2018-11-21T16:55:59.795Z,40.40
2018-11-21T16:58:48.314Z,40.60
2018-11-21T17:01:36.837Z,40.40
2018-11-21T17:04:25.436Z,40.10
2018-11-21T17:07:13.953Z,40.30
2018-11-21T17:10:02.755Z,40.50
2018-11-21T17:12:51.345Z,40.50
2018-11-21T17:15:39.922Z,40.60
2018-11-21T17:18:28.461Z,40.60
2018-11-21T17:21:16.955Z,40.70
2018-11-21T17:24:05.948Z,40.50
2018-11-21T17:26:54.462Z,40.40
2018-11-21T17:29:53.660Z,40.50
2018-11-21T17:32:33.170Z,40.70
2018-11-21T17:35:22.144Z,40.60
2018-11-21T17:38:10.795Z,40.60
2018-11-21T17:40:59.380Z,40.80
2018-11-21T17:43:47.864Z,40.80
2018-11-21T17:46:36.428Z,40.70
2018-11-21T17:49:24.951Z,40.40
2018-11-21T17:52:13.551Z,40.50
2018-11-21T17:55:02.087Z,40.80
2018-11-21T17:57:50.709Z,40.60
2018-11-21T18:00:39.326Z,40.60
2018-11-21T18:03:27.817Z,40.40
2018-11-21T18:06:16.596Z,40.60
2018-11-21T18:09:06.829Z,40.30
2018-11-21T18:11:55.343Z,40.60
2018-11-21T18:14:43.884Z,40.90
2018-11-21T18:17:33.169Z,40.80
2018-11-21T18:20:22.221Z,41.00
2018-11-21T18:23:10.781Z,40.10
2018-11-21T18:25:59.304Z,40.60
2018-11-21T18:28:47.785Z,39.90
2018-11-21T18:31:36.378Z,40.50
2018-11-21T18:37:32.695Z,40.40
2018-11-21T18:40:25.718Z,40.60
2018-11-21T18:43:14.253Z,40.60
2018-11-21T18:46:02.852Z,40.20
2018-11-21T18:48:51.351Z,40.60
2018-11-21T18:57:47.689Z,39.90
2018-11-21T19:00:36.691Z,40.70
2018-11-21T19:03:25.284Z,40.60
2018-11-21T19:06:13.793Z,40.80
2018-11-21T19:09:02.340Z,40.70
2018-11-21T19:11:50.876Z,40.50
2018-11-21T19:14:39.686Z,40.60
2018-11-21T19:17:28.771Z,40.70
2018-11-21T19:20:18.571Z,40.70
2018-11-21T19:23:07.175Z,40.70
2018-11-21T19:25:56.049Z,40.80
2018-11-21T19:28:44.495Z,40.80
2018-11-21T19:31:33.131Z,40.70
2018-11-21T19:34:21.759Z,40.90
2018-11-21T19:37:10.271Z,40.20
2018-11-21T19:39:58.757Z,40.80
2018-11-21T19:42:47.662Z,40.70
2018-11-21T19:45:36.269Z,40.70
2018-11-21T19:48:24.899Z,41.20
2018-11-21T19:54:07.698Z,41.00
2018-11-21T19:56:56.195Z,41.20
2018-11-21T19:59:44.689Z,41.20
2018-11-21T20:02:33.229Z,40.70
2018-11-21T20:05:21.867Z,41.30
2018-11-21T20:08:10.400Z,40.80
2018-11-21T20:10:58.936Z,41.00
2018-11-21T20:13:47.410Z,41.50
2018-11-21T20:16:36.050Z,41.50
2018-11-21T20:19:24.891Z,41.40
2018-11-21T20:22:13.421Z,41.20
2018-11-21T20:25:02.725Z,41.40
2018-11-21T20:27:51.371Z,41.80
2018-11-21T20:30:40.724Z,42.10
2018-11-21T20:33:29.601Z,42.20
2018-11-21T20:36:18.169Z,42.60
2018-11-21T20:39:25.899Z,42.60
2018-11-21T20:45:11.484Z,42.80
2018-11-21T20:48:01.786Z,42.60
2018-11-21T20:50:50.932Z,43.00
2018-11-21T20:53:58.640Z,43.00
2018-11-21T20:56:47.147Z,43.10
2018-11-21T20:59:36.458Z,43.10
2018-11-21T21:02:24.993Z,43.30
2018-11-21T21:05:14.831Z,43.30
2018-11-21T21:08:03.405Z,42.90
2018-11-21T21:10:51.909Z,43.30
2018-11-21T21:13:40.497Z,43.40
2018-11-21T21:16:29.018Z,43.40
2018-11-21T21:19:18.162Z,43.60
2018-11-21T21:21:47.678Z,43.40
2018-11-21T21:24:36.256Z,43.60
2018-11-21T21:27:24.746Z,43.80
2018-11-21T21:30:18.225Z,43.70
2018-11-21T21:33:06.885Z,43.50
2018-11-21T21:35:55.461Z,43.50
2018-11-21T21:38:44.117Z,43.50
2018-11-21T21:41:32.834Z,43.40
2018-11-21T21:44:21.365Z,43.50
2018-11-21T21:47:09.877Z,43.60
2018-11-21T21:50:17.525Z,43.50
2018-11-21T21:53:06.032Z,43.50
2018-11-21T21:55:54.888Z,43.50
2018-11-21T21:58:43.416Z,43.60
2018-11-21T22:01:31.962Z,44.90
2018-11-21T22:04:20.505Z,46.40
2018-11-21T22:07:09.139Z,46.10
2018-11-21T22:09:57.677Z,48.50
2018-11-21T22:12:46.212Z,44.70
2018-11-21T22:15:36.223Z,43.50
2018-11-21T22:18:24.732Z,42.20
2018-11-21T22:21:13.252Z,42.10
2018-11-21T22:24:02.164Z,42.10
2018-11-21T22:26:50.648Z,42.10
2018-11-21T22:29:39.463Z,42.10
2018-11-21T22:32:28.343Z,41.80
2018-11-21T22:35:18.859Z,42.20
2018-11-21T22:38:06.301Z,42.40
2018-11-21T22:40:54.906Z,42.60
2018-11-21T22:43:43.407Z,42.60
2018-11-21T22:49:25.898Z,42.20
2018-11-21T22:52:14.402Z,42.20
2018-11-21T22:57:57.110Z,42.70
2018-11-21T23:00:47.384Z,42.80
2018-11-21T23:03:35.944Z,42.50
2018-11-21T23:09:18.679Z,42.70
2018-11-21T23:12:07.283Z,42.60
2018-11-21T23:14:55.804Z,42.00
2018-11-21T23:17:44.297Z,42.60
2018-11-21T23:20:32.855Z,42.60
2018-11-21T23:23:21.817Z,42.80
2018-11-21T23:26:10.352Z,42.70
2018-11-21T23:28:58.849Z,42.80
2018-11-21T23:34:42.230Z,42.00
2018-11-21T23:37:30.833Z,42.70
2018-11-21T23:40:19.391Z,42.80
2018-11-21T23:43:07.958Z,42.90
2018-11-21T23:45:56.494Z,42.40
2018-11-21T23:48:45.149Z,42.60
2018-11-21T23:51:33.731Z,42.60
2018-11-21T23:54:22.242Z,42.60
2018-11-21T23:57:16.178Z,42.50
2018-11-21T23:59:59.477Z,42.70
